Terminal Aerodrome Forecast
Issued by NWS Memphis, TN

Home | Current Version | Previous Version | Text Only | Print | Product List | Glossary On
Versions: 1 2 3 4 5 6 7 8 9 10 11 12 13 14 15 16 17 18 19 20 21
000
FTUS44 KMEG 221926 AAA
TAFMKL
TAF AMD
KMKL 221926Z 2219/2318 05005KT 3SM BR OVC005
     FM230200 14003KT 3SM SHRA BR OVC007
     FM230600 17005KT 3SM BR VCSH SCT005 OVC015
      TEMPO 2308/2312 OVC004
     FM231200 20008KT 5SM BR VCSH OVC004=

USA.gov is the U.S. government's official web portal to all federal, state and local government web resources and services.